Time;durP1;ratioP1;P1;durP2;ratioP2;P2;SDS_P1;SDS_P2;PMS_P1;PMS_P2;Temp;Humidity;BMP_temperature;BMP_pressure;BME280_temperature;BME280_humidity;BME280_pressure;Samples;Min_cycle;Max_cycle;Signal;HPM_P1;HPM_P2
2020/12/01 00:01:10;;;;;;;2.30;2.07;;;18.20;57.00;;;;;;4998981;28;20240;-60
2020/12/01 00:03:40;;;;;;;3.00;2.10;;;18.20;57.00;;;;;;4997288;28;21894;-58
2020/12/01 00:06:08;;;;;;;2.10;1.90;;;18.20;57.00;;;;;;5004942;28;20227;-59
2020/12/01 00:08:35;;;;;;;3.47;2.40;;;18.20;57.00;;;;;;5003318;28;20234;-60
2020/12/01 00:11:02;;;;;;;2.20;2.00;;;18.20;56.90;;;;;;4997535;28;20231;-60
2020/12/01 00:13:28;;;;;;;2.20;1.90;;;18.10;57.00;;;;;;5004408;28;20227;-60
2020/12/01 00:15:54;;;;;;;2.37;2.00;;;18.20;57.10;;;;;;4998525;28;20548;-60
2020/12/01 00:18:21;;;;;;;3.00;1.97;;;18.10;57.00;;;;;;5004247;28;20285;-61
2020/12/01 00:20:47;;;;;;;3.60;2.20;;;18.10;57.00;;;;;;4994922;28;20223;-60
2020/12/01 00:23:13;;;;;;;2.30;2.10;;;18.00;57.00;;;;;;5005864;28;20735;-60
2020/12/01 00:25:40;;;;;;;3.87;2.17;;;18.10;57.20;;;;;;4995423;28;20231;-60
2020/12/01 00:28:06;;;;;;;2.70;2.10;;;18.10;57.20;;;;;;5006443;28;20224;-60
2020/12/01 00:30:33;;;;;;;2.37;1.80;;;18.00;57.10;;;;;;4997651;28;20799;-60
2020/12/01 00:32:59;;;;;;;2.17;1.97;;;18.10;57.00;;;;;;5006165;28;20284;-61
2020/12/01 00:35:28;;;;;;;2.40;1.80;;;18.00;57.10;;;;;;4997325;28;20223;-60
2020/12/01 00:37:55;;;;;;;1.90;1.80;;;18.00;57.20;;;;;;5004176;28;20219;-59
2020/12/01 00:40:22;;;;;;;2.10;1.67;;;18.00;57.20;;;;;;4996883;28;20224;-60
2020/12/01 00:42:51;;;;;;;2.47;2.13;;;18.00;57.20;;;;;;5004465;28;20237;-60
2020/12/01 00:45:18;;;;;;;1.90;1.60;;;18.00;57.20;;;;;;4999899;28;20231;-60
2020/12/01 00:47:44;;;;;;;2.93;1.80;;;18.00;57.30;;;;;;5002995;28;20227;-60
2020/12/01 00:50:14;;;;;;;1.70;1.60;;;17.90;57.20;;;;;;5001243;28;20231;-60
2020/12/01 00:52:41;;;;;;;1.80;1.70;;;17.90;57.30;;;;;;4996441;28;20231;-60
2020/12/01 00:55:08;;;;;;;1.87;1.60;;;17.90;57.30;;;;;;5005072;28;20230;-60
2020/12/01 00:57:35;;;;;;;1.70;1.50;;;17.90;57.30;;;;;;4996072;28;20256;-60
2020/12/01 01:00:04;;;;;;;1.57;1.47;;;17.90;57.30;;;;;;5004748;28;20305;-61
2020/12/01 01:02:30;;;;;;;1.90;1.80;;;17.90;57.30;;;;;;4993078;28;20595;-60
2020/12/01 01:04:56;;;;;;;2.20;1.83;;;17.90;57.40;;;;;;5005204;28;20220;-60
2020/12/01 01:07:22;;;;;;;2.13;1.80;;;17.90;57.40;;;;;;4996297;28;20938;-60
2020/12/01 01:09:48;;;;;;;1.90;1.70;;;17.90;57.50;;;;;;5005690;28;20564;-60
2020/12/01 01:12:15;;;;;;;2.87;1.70;;;17.80;57.40;;;;;;4994400;28;20633;-61
2020/12/01 01:14:42;;;;;;;2.60;2.07;;;17.90;57.50;;;;;;5004737;28;20285;-60
2020/12/01 01:17:08;;;;;;;2.00;1.80;;;17.80;57.40;;;;;;4997550;28;20211;-61
2020/12/01 01:19:35;;;;;;;2.00;1.80;;;17.80;57.10;;;;;;5005392;28;20872;-61
2020/12/01 01:22:01;;;;;;;1.70;1.53;;;17.80;57.30;;;;;;4994470;28;20235;-61
2020/12/01 01:24:27;;;;;;;2.43;1.80;;;17.80;57.50;;;;;;5004189;28;20231;-60
2020/12/01 01:26:54;;;;;;;1.90;1.57;;;17.70;56.90;;;;;;5005642;28;20291;-60
2020/12/01 01:29:22;;;;;;;3.47;1.33;;;17.70;56.90;;;;;;4997321;28;20227;-61
2020/12/01 01:31:55;;;;;;;2.67;1.70;;;17.70;56.80;;;;;;5003961;28;20234;-61
2020/12/01 01:34:26;;;;;;;1.90;1.43;;;17.70;56.80;;;;;;4997079;28;20219;-61
2020/12/01 01:36:52;;;;;;;2.77;1.70;;;17.70;56.90;;;;;;5003689;28;20250;-61
2020/12/01 01:39:18;;;;;;;2.23;1.60;;;17.70;56.90;;;;;;4995885;28;20239;-60
2020/12/01 01:41:45;;;;;;;1.70;1.20;;;17.70;56.70;;;;;;5005429;28;20250;-60
2020/12/01 01:44:20;;;;;;;1.53;1.20;;;17.60;56.60;;;;;;4991748;28;20215;-61
2020/12/01 01:47:12;;;;;;;1.57;1.30;;;17.60;56.80;;;;;;5003285;28;20242;-60
2020/12/01 01:49:40;;;;;;;3.17;1.10;;;17.60;56.70;;;;;;5000328;28;20569;-61
2020/12/01 01:52:28;;;;;;;2.13;1.30;;;17.60;56.70;;;;;;5008784;28;20247;-60
2020/12/01 01:54:59;;;;;;;2.23;1.03;;;17.60;56.80;;;;;;4997860;28;21748;-61
2020/12/01 01:57:28;;;;;;;3.03;1.17;;;17.50;56.70;;;;;;5008137;28;20836;-60
2020/12/01 01:59:55;;;;;;;2.50;1.17;;;17.60;56.90;;;;;;5000843;28;20233;-59
2020/12/01 02:02:22;;;;;;;1.30;1.20;;;17.60;57.00;;;;;;5007309;28;20675;-61
2020/12/01 02:04:48;;;;;;;1.90;1.20;;;17.50;56.80;;;;;;4999790;28;20785;-60
2020/12/01 02:07:15;;;;;;;1.03;0.90;;;17.50;56.90;;;;;;5006865;28;20234;-60
2020/12/01 02:09:49;;;;;;;1.73;1.13;;;17.50;56.90;;;;;;5001402;28;20665;-59
2020/12/01 02:12:17;;;;;;;2.40;1.00;;;17.50;56.90;;;;;;5003602;28;21944;-60
2020/12/01 02:15:03;;;;;;;2.00;1.00;;;17.50;57.00;;;;;;5000424;28;20329;-60
2020/12/01 02:17:31;;;;;;;1.10;0.90;;;17.60;57.00;;;;;;5006840;28;20787;-59
2020/12/01 02:20:03;;;;;;;1.70;1.00;;;17.50;57.00;;;;;;4991489;28;21084;-60
2020/12/01 02:22:29;;;;;;;1.40;0.80;;;17.60;57.00;;;;;;5007318;28;20617;-60
2020/12/01 02:24:57;;;;;;;1.60;1.00;;;17.50;57.00;;;;;;4999826;28;20227;-60
2020/12/01 02:27:26;;;;;;;1.43;0.60;;;17.50;57.10;;;;;;5008724;28;20285;-60
2020/12/01 02:29:55;;;;;;;1.17;0.73;;;17.50;57.20;;;;;;5000107;28;20227;-60
2020/12/01 02:32:26;;;;;;;2.50;0.90;;;17.50;57.20;;;;;;5003011;28;22147;-60
2020/12/01 02:34:58;;;;;;;2.23;1.00;;;17.50;57.20;;;;;;4999455;28;20235;-60
2020/12/01 02:37:27;;;;;;;2.53;1.23;;;17.50;57.20;;;;;;5007684;28;20223;-60
2020/12/01 02:39:53;;;;;;;1.63;0.80;;;17.50;57.30;;;;;;5007466;28;20285;-60
2020/12/01 02:42:23;;;;;;;2.27;1.00;;;17.50;57.40;;;;;;4999572;28;20239;-60
2020/12/01 02:44:51;;;;;;;3.37;0.80;;;17.50;57.40;;;;;;5006395;28;20227;-60
2020/12/01 02:47:18;;;;;;;1.33;0.80;;;17.50;57.30;;;;;;5000695;28;20315;-60
2020/12/01 02:49:44;;;;;;;1.83;0.80;;;17.50;57.30;;;;;;5006931;28;20691;-59
2020/12/01 02:52:11;;;;;;;1.30;0.50;;;17.50;57.40;;;;;;4997031;28;20238;-60
2020/12/01 02:54:37;;;;;;;3.10;0.60;;;17.40;57.30;;;;;;5009373;28;20730;-59
2020/12/01 02:57:04;;;;;;;3.00;0.90;;;17.40;57.30;;;;;;4998964;28;20235;-60
2020/12/01 02:59:30;;;;;;;1.70;1.07;;;17.50;57.40;;;;;;5005644;28;20244;-59
2020/12/01 03:01:56;;;;;;;1.57;0.70;;;17.40;57.40;;;;;;4999136;28;20242;-60
2020/12/01 03:04:23;;;;;;;0.93;0.70;;;17.40;57.40;;;;;;5006734;28;20533;-59
2020/12/01 03:06:49;;;;;;;2.27;0.90;;;17.40;57.40;;;;;;5000060;28;20238;-59
2020/12/01 03:09:18;;;;;;;2.90;0.77;;;17.40;57.40;;;;;;5007458;28;20644;-59
2020/12/01 03:11:46;;;;;;;1.20;0.60;;;17.40;57.40;;;;;;4999527;28;20227;-59
2020/12/01 03:14:12;;;;;;;1.53;0.70;;;17.40;57.50;;;;;;5007487;28;21885;-59
2020/12/01 03:16:39;;;;;;;1.87;1.00;;;17.40;57.50;;;;;;4999669;28;20231;-59
2020/12/01 03:19:05;;;;;;;1.47;0.83;;;17.40;57.50;;;;;;5007436;28;20751;-60
2020/12/01 03:21:32;;;;;;;1.73;0.60;;;17.40;57.60;;;;;;5009295;28;20238;-60
2020/12/01 03:23:58;;;;;;;2.13;0.80;;;17.40;57.50;;;;;;4998646;28;20219;-59
2020/12/01 03:26:25;;;;;;;1.60;0.70;;;17.40;57.60;;;;;;5007270;28;20220;-60
2020/12/01 03:28:51;;;;;;;1.53;0.80;;;17.40;57.60;;;;;;4998426;28;20294;-58
2020/12/01 03:31:20;;;;;;;2.63;0.90;;;17.40;57.60;;;;;;5004513;28;20727;-60
2020/12/01 03:33:47;;;;;;;2.67;0.80;;;17.40;57.60;;;;;;4999121;28;20837;-59
2020/12/01 03:36:15;;;;;;;0.93;0.67;;;17.40;57.50;;;;;;5006698;28;20247;-59
2020/12/01 03:38:41;;;;;;;1.93;0.67;;;17.30;57.60;;;;;;4997448;28;20235;-60
2020/12/01 03:41:07;;;;;;;2.37;1.10;;;17.30;57.60;;;;;;5006853;28;20827;-60
2020/12/01 03:43:33;;;;;;;1.60;0.77;;;17.40;57.60;;;;;;4996543;28;20222;-60
2020/12/01 03:46:00;;;;;;;1.47;0.70;;;17.30;57.60;;;;;;5004818;28;20247;-59
2020/12/01 03:48:26;;;;;;;1.53;0.77;;;17.30;57.50;;;;;;4998595;28;20649;-59
2020/12/01 03:50:53;;;;;;;1.50;0.70;;;17.30;57.50;;;;;;5006127;28;20980;-60
2020/12/01 03:53:19;;;;;;;3.33;0.90;;;17.30;57.60;;;;;;4999281;28;20578;-60
2020/12/01 03:55:45;;;;;;;2.20;0.90;;;17.30;57.50;;;;;;5007773;28;20235;-59
2020/12/01 03:58:11;;;;;;;2.30;0.73;;;17.30;57.50;;;;;;5006846;28;20283;-60
2020/12/01 04:00:38;;;;;;;2.43;0.70;;;17.30;57.50;;;;;;4998286;28;20219;-60
2020/12/01 04:03:04;;;;;;;1.57;0.73;;;17.30;57.40;;;;;;5005817;28;20227;-60
2020/12/01 04:05:31;;;;;;;2.70;0.90;;;17.30;57.50;;;;;;4998661;28;20232;-58
2020/12/01 04:07:57;;;;;;;2.63;0.80;;;17.30;57.60;;;;;;5006015;28;20265;-59
2020/12/01 04:10:26;;;;;;;1.37;0.53;;;17.30;57.60;;;;;;4993416;28;20587;-59
2020/12/01 04:12:54;;;;;;;1.63;0.90;;;17.30;57.50;;;;;;5006175;28;20231;-60
2020/12/01 04:15:22;;;;;;;3.43;0.90;;;17.30;58.10;;;;;;4997577;28;20242;-60
2020/12/01 04:17:48;;;;;;;1.27;0.67;;;17.30;57.60;;;;;;5004063;28;20234;-59
2020/12/01 04:20:15;;;;;;;1.80;1.00;;;17.30;57.60;;;;;;4999131;28;20227;-60
2020/12/01 04:22:44;;;;;;;0.93;0.70;;;17.30;57.60;;;;;;5005515;28;20216;-59
2020/12/01 04:25:11;;;;;;;3.40;0.97;;;17.30;57.70;;;;;;4999232;28;20683;-59
2020/12/01 04:27:38;;;;;;;1.90;0.87;;;17.30;57.60;;;;;;5006425;28;20277;-60
2020/12/01 04:30:07;;;;;;;2.27;0.80;;;17.30;57.60;;;;;;4996455;28;20238;-59
2020/12/01 04:32:34;;;;;;;1.30;0.70;;;17.30;57.60;;;;;;5004231;28;20224;-59
2020/12/01 04:35:00;;;;;;;1.63;0.80;;;17.20;57.60;;;;;;4997377;28;20239;-59
2020/12/01 04:37:27;;;;;;;1.80;0.70;;;17.20;57.60;;;;;;5007866;28;20231;-59
2020/12/01 04:39:53;;;;;;;2.63;0.93;;;17.20;57.60;;;;;;5006372;28;20227;-60
2020/12/01 04:42:22;;;;;;;1.67;0.70;;;17.20;57.60;;;;;;4997565;28;20270;-60
2020/12/01 04:44:57;;;;;;;2.37;0.90;;;17.20;57.60;;;;;;5006260;28;20227;-60
2020/12/01 04:47:45;;;;;;;1.73;0.87;;;17.20;57.70;;;;;;4998584;28;20837;-59
2020/12/01 04:50:15;;;;;;;3.80;1.10;;;17.20;57.60;;;;;;5005142;28;20231;-58
2020/12/01 04:53:04;;;;;;;3.90;0.90;;;17.20;57.50;;;;;;4994739;28;20749;-60
2020/12/01 04:56:09;;;;;;;1.20;0.70;;;17.20;57.50;;;;;;5005653;28;20798;-60
2020/12/01 04:58:39;;;;;;;2.27;0.90;;;17.20;57.40;;;;;;5005307;28;20692;-60
2020/12/01 05:01:33;;;;;;;2.37;1.20;;;17.30;57.30;;;;;;4997801;28;20907;-59
2020/12/01 05:04:26;;;;;;;2.17;0.80;;;17.20;57.40;;;;;;5005508;28;20692;-59
2020/12/01 05:07:19;;;;;;;3.60;1.20;;;17.20;57.30;;;;;;4997488;28;20564;-59
2020/12/01 05:09:52;;;;;;;1.63;0.70;;;17.10;57.30;;;;;;5004895;28;21980;-59
2020/12/01 05:12:37;;;;;;;2.07;0.80;;;17.20;57.30;;;;;;4997280;28;20587;-60
2020/12/01 05:15:38;;;;;;;1.67;0.80;;;17.20;57.30;;;;;;4999915;28;20331;-60
2020/12/01 05:18:14;;;;;;;2.17;0.93;;;17.20;57.10;;;;;;4997000;28;20227;-59
2020/12/01 05:21:02;;;;;;;2.07;0.87;;;17.20;57.30;;;;;;5003220;28;20227;-59
2020/12/01 05:23:42;;;;;;;2.57;1.00;;;17.10;57.20;;;;;;4994523;28;20281;-59
2020/12/01 05:26:14;;;;;;;2.57;1.00;;;17.10;57.10;;;;;;5006942;28;20227;-60
2020/12/01 05:28:51;;;;;;;2.77;0.70;;;17.20;57.10;;;;;;5001832;28;20603;-59
2020/12/01 05:31:23;;;;;;;3.30;1.00;;;17.20;57.10;;;;;;5007848;28;20288;-59
2020/12/01 05:34:04;;;;;;;2.40;1.20;;;17.10;57.20;;;;;;5001103;28;20859;-59
2020/12/01 05:36:37;;;;;;;2.87;1.00;;;17.10;57.10;;;;;;5008503;28;20470;-60
2020/12/01 05:39:16;;;;;;;2.20;0.90;;;17.10;57.10;;;;;;5001574;28;20237;-59
2020/12/01 05:41:45;;;;;;;2.10;0.87;;;17.10;57.30;;;;;;5023022;28;20277;-60
2020/12/01 05:44:24;;;;;;;2.97;1.20;;;17.20;57.30;;;;;;5000774;28;20261;-59
2020/12/01 05:47:15;;;;;;;3.67;1.20;;;17.10;57.10;;;;;;5008003;28;20231;-58
2020/12/01 05:49:49;;;;;;;1.93;0.70;;;17.10;57.20;;;;;;4990827;28;21685;-60
2020/12/01 05:52:28;;;;;;;1.50;0.93;;;17.10;57.20;;;;;;5023893;28;20227;-60
2020/12/01 05:55:13;;;;;;;4.73;1.23;;;17.20;57.20;;;;;;4999532;28;20882;-59
2020/12/01 05:57:40;;;;;;;2.37;0.90;;;17.10;57.20;;;;;;5004064;28;20312;-60
2020/12/01 06:00:13;;;;;;;2.77;1.13;;;17.10;57.30;;;;;;4998982;28;20216;-58
2020/12/01 06:02:52;;;;;;;5.23;1.40;;;17.10;57.20;;;;;;5006398;28;20827;-59
2020/12/01 06:05:25;;;;;;;5.60;2.17;;;17.10;57.30;;;;;;5000387;28;20840;-60
2020/12/01 06:07:57;;;;;;;7.73;2.30;;;17.10;57.40;;;;;;5003607;28;20427;-60
2020/12/01 06:10:40;;;;;;;13.43;3.10;;;17.10;57.40;;;;;;4994453;28;20817;-60
2020/12/01 06:13:21;;;;;;;8.77;2.63;;;17.10;57.10;;;;;;5004935;28;20415;-59
2020/12/01 06:16:11;;;;;;;8.20;2.80;;;17.10;57.20;;;;;;4999571;28;20235;-60
2020/12/01 06:19:14;;;;;;;6.57;2.40;;;17.10;57.30;;;;;;5007520;28;20806;-59
2020/12/01 06:22:11;;;;;;;7.60;2.70;;;17.10;57.20;;;;;;5007305;28;20589;-60
2020/12/01 06:25:20;;;;;;;9.63;2.50;;;17.10;57.20;;;;;;5001304;28;20903;-59
2020/12/01 06:28:18;;;;;;;8.07;2.80;;;17.10;57.50;;;;;;5004410;28;20564;-59
2020/12/01 06:31:00;;;;;;;9.93;2.83;;;17.10;57.10;;;;;;4996664;28;22022;-59
2020/12/01 06:34:04;;;;;;;12.30;2.70;;;17.10;57.30;;;;;;5006635;28;20813;-60
2020/12/01 06:36:55;;;;;;;8.07;2.90;;;17.10;57.30;;;;;;4997537;28;20250;-59
2020/12/01 06:39:50;;;;;;;7.47;2.60;;;17.10;57.10;;;;;;5008075;28;20596;-59
2020/12/01 06:42:19;;;;;;;11.70;3.33;;;17.10;58.10;;;;;;4989054;28;20263;-60
2020/12/01 06:44:52;;;;;;;9.07;2.77;;;17.10;58.10;;;;;;4999997;28;20243;-59
2020/12/01 06:47:24;;;;;;;9.13;2.83;;;17.10;57.80;;;;;;5000143;28;20714;-59
2020/12/01 06:49:55;;;;;;;12.93;3.23;;;17.10;57.60;;;;;;5006650;28;20235;-60
2020/12/01 06:52:22;;;;;;;8.93;3.13;;;17.10;58.00;;;;;;5000690;28;20239;-59
2020/12/01 06:54:50;;;;;;;8.53;2.67;;;17.10;57.60;;;;;;5005245;28;20822;-59
2020/12/01 06:57:35;;;;;;;9.90;3.23;;;17.10;57.90;;;;;;4997961;28;20608;-59
2020/12/01 07:00:06;;;;;;;9.90;2.63;;;17.10;57.70;;;;;;5006142;28;20510;-59
2020/12/01 07:02:39;;;;;;;7.50;2.83;;;17.10;57.60;;;;;;4996894;28;20711;-60
2020/12/01 07:05:10;;;;;;;8.37;2.23;;;17.10;57.70;;;;;;5007200;28;20231;-60
2020/12/01 07:07:41;;;;;;;6.70;2.60;;;17.10;57.60;;;;;;4993882;28;20243;-60
2020/12/01 07:10:36;;;;;;;8.67;2.50;;;17.10;57.70;;;;;;5005812;28;20273;-59
2020/12/01 07:13:21;;;;;;;6.87;2.60;;;17.10;57.50;;;;;;4988562;28;20255;-59
2020/12/01 07:15:50;;;;;;;8.33;2.70;;;17.10;57.50;;;;;;5001690;28;20224;-59
2020/12/01 07:18:27;;;;;;;7.57;2.50;;;17.10;57.40;;;;;;4997565;28;20771;-60
2020/12/01 07:21:09;;;;;;;7.83;2.47;;;17.10;57.50;;;;;;5002938;28;20810;-58
2020/12/01 07:23:55;;;;;;;8.73;2.57;;;17.10;57.60;;;;;;4996755;28;20223;-59
2020/12/01 07:26:47;;;;;;;7.80;2.17;;;17.10;57.40;;;;;;5005619;28;20238;-60
2020/12/01 07:29:30;;;;;;;5.87;2.47;;;17.10;57.40;;;;;;4993070;28;20621;-60
2020/12/01 07:32:09;;;;;;;5.60;2.00;;;17.00;57.20;;;;;;5007322;28;20238;-59
2020/12/01 07:34:36;;;;;;;6.27;2.23;;;17.00;57.50;;;;;;5001364;28;20234;-59
2020/12/01 07:37:26;;;;;;;4.90;2.33;;;17.10;57.50;;;;;;5007614;28;20235;-60
2020/12/01 07:39:59;;;;;;;5.77;2.00;;;17.00;57.30;;;;;;4998233;28;20791;-59
2020/12/01 07:42:31;;;;;;;4.83;1.70;;;17.10;57.40;;;;;;5007724;28;20231;-58
2020/12/01 07:44:57;;;;;;;6.20;1.83;;;17.10;57.40;;;;;;4999396;28;20242;-60
2020/12/01 07:47:27;;;;;;;5.97;1.73;;;17.10;57.10;;;;;;5007249;28;20278;-59
2020/12/01 07:50:02;;;;;;;75.13;22.00;;;17.00;57.30;;;;;;4993221;28;20230;-60
2020/12/01 07:52:36;;;;;;;94.90;24.30;;;17.00;57.90;;;;;;5005626;28;20219;-62
2020/12/01 07:55:08;;;;;;;64.47;17.60;;;17.10;58.10;;;;;;4995828;28;20242;-63
2020/12/01 07:57:34;;;;;;;;;;;17.10;58.10;;;;;;5002574;28;20050;-66
2020/12/01 08:00:03;;;;;;;;;;;17.20;59.60;;;;;;4999429;28;20358;-59
2020/12/01 08:02:31;;;;;;;;;;;17.30;59.90;;;;;;5003654;28;20675;-58
2020/12/01 08:05:10;;;;;;;;;;;17.50;61.10;;;;;;5002302;28;19928;-56
2020/12/01 08:07:36;;;;;;;;;;;17.60;60.00;;;;;;5006942;28;19979;-57
2020/12/01 08:10:04;;;;;;;;;;;17.70;60.60;;;;;;5016152;28;20243;-56
2020/12/01 08:12:34;;;;;;;;;;;17.90;60.00;;;;;;5006433;28;19926;-59
2020/12/01 08:15:00;;;;;;;;;;;17.90;59.60;;;;;;5001567;28;20293;-59
2020/12/01 08:17:28;;;;;;;;;;;18.00;59.30;;;;;;5009831;28;19928;-59
2020/12/01 08:19:55;;;;;;;;;;;18.10;58.90;;;;;;4999384;28;19930;-58
2020/12/01 08:22:25;;;;;;;;;;;18.10;58.60;;;;;;5008857;28;19922;-59
2020/12/01 08:24:56;;;;;;;;;;;18.20;58.70;;;;;;5001606;28;19925;-57
2020/12/01 08:27:25;;;;;;;;;;;18.30;58.30;;;;;;5009822;28;19971;-57
2020/12/01 08:29:53;;;;;;;;;;;18.40;58.40;;;;;;5004132;28;19930;-59
2020/12/01 08:32:37;;;;;;;;;;;18.50;58.00;;;;;;5003948;28;19930;-56
2020/12/01 08:35:05;;;;;;;;;;;18.50;57.50;;;;;;4999773;28;22033;-59
2020/12/01 08:37:50;;;;;;;;;;;18.50;57.70;;;;;;5004580;28;19979;-58
2020/12/01 08:40:24;;;;;;;;;;;18.60;57.90;;;;;;4997175;28;19929;-57
2020/12/01 08:42:56;;;;;;;;;;;18.60;57.50;;;;;;5007892;28;21423;-59
2020/12/01 08:45:52;;;;;;;;;;;18.70;57.30;;;;;;5001019;28;21961;-59
2020/12/01 08:48:26;;;;;;;;;;;18.70;56.90;;;;;;5007448;28;19944;-58
2020/12/01 08:50:58;;;;;;;;;;;18.80;56.90;;;;;;5005100;28;19960;-57
2020/12/01 08:53:26;;;;;;;;;;;18.80;56.60;;;;;;5008088;28;19925;-60
2020/12/01 08:55:58;;;;;;;;;;;18.90;56.50;;;;;;5006503;28;19971;-61
2020/12/01 08:58:27;;;;;;;;;;;18.90;56.20;;;;;;5003634;28;20313;-59
2020/12/01 09:01:09;;;;;;;;;;;19.00;56.10;;;;;;4998705;28;19921;-59
2020/12/01 09:03:36;;;;;;;;;;;19.00;55.90;;;;;;5003194;28;20683;-59
2020/12/01 09:06:18;;;;;;;;;;;19.00;55.90;;;;;;5005474;28;19939;-59
2020/12/01 09:08:52;;;;;;;;;;;19.10;55.80;;;;;;5008058;28;21003;-59
2020/12/01 09:13:58;;;;;;;;;;;19.10;55.70;;;;;;5008505;28;19929;-59
2020/12/01 09:16:43;;;;;;;;;;;19.00;55.40;;;;;;5009403;28;19941;-59
2020/12/01 09:21:52;;;;;;;;;;;19.00;55.40;;;;;;4993512;28;19925;-60
2020/12/01 09:24:22;;;;;;;;;;;19.10;55.20;;;;;;5006021;28;19925;-59
2020/12/01 09:27:11;;;;;;;;;;;19.20;55.20;;;;;;5006942;28;20293;-58
2020/12/01 09:29:38;;;;;;;;;;;19.10;54.90;;;;;;5007436;28;19957;-59
2020/12/01 09:32:07;;;;;;;;;;;19.10;54.90;;;;;;5035170;28;19925;-62
2020/12/01 09:34:34;;;;;;;;;;;19.20;55.00;;;;;;5001708;28;19975;-62
2020/12/01 09:37:02;;;;;;;;;;;19.20;54.80;;;;;;5005052;28;19921;-60
2020/12/01 09:39:29;;;;;;;;;;;19.30;55.00;;;;;;5000017;28;19933;-58
2020/12/01 09:42:03;;;;;;;;;;;19.30;54.80;;;;;;5007232;28;20354;-60
2020/12/01 09:47:11;;;;;;;;;;;19.40;55.10;;;;;;5008227;28;19928;-59
2020/12/01 09:49:37;;;;;;;;;;;19.50;54.70;;;;;;5001426;28;19945;-59
2020/12/01 09:52:12;;;;;;;;;;;19.50;54.70;;;;;;5005414;28;19976;-60
2020/12/01 09:54:56;;;;;;;;;;;19.40;54.50;;;;;;5003780;28;21526;-59
2020/12/01 10:00:24;;;;;;;;;;;19.60;54.30;;;;;;5003783;28;20254;-58
2020/12/01 10:03:19;;;;;;;;;;;20.20;53.00;;;;;;5007053;28;19976;-58
2020/12/01 10:08:21;;;;;;;;;;;21.00;50.80;;;;;;5005625;28;19929;-58
2020/12/01 10:13:41;;;;;;;;;;;21.50;50.00;;;;;;5010418;28;19922;-59
2020/12/01 10:22:45;;;;;;;;;;;22.00;49.30;;;;;;5007047;28;21041;-57
2020/12/01 10:25:36;;;;;;;;;;;22.10;48.60;;;;;;5004731;28;20604;-56
2020/12/01 10:28:59;;;;;;;;;;;22.20;48.70;;;;;;5003373;28;20797;-56
2020/12/01 10:31:50;;;;;;;;;;;22.40;48.70;;;;;;5003929;28;19921;-58
2020/12/01 10:36:22;;;;;;;;;;;22.60;48.00;;;;;;5002882;28;20916;-57
2020/12/01 10:38:48;;;;;;;;;;;22.70;48.00;;;;;;5007565;28;19928;-59
2020/12/01 10:41:15;;;;;;;;;;;22.70;47.90;;;;;;5003787;28;19929;-58
2020/12/01 10:43:41;;;;;;;;;;;22.90;48.20;;;;;;5010031;28;19925;-59
2020/12/01 10:46:11;;;;;;;;;;;22.90;47.80;;;;;;5003043;28;19975;-58
2020/12/01 10:48:37;;;;;;;;;;;23.00;47.60;;;;;;5007818;28;19925;-57
2020/12/01 10:51:03;;;;;;;;;;;23.10;47.50;;;;;;5001668;28;19929;-58
2020/12/01 10:53:29;;;;;;;;;;;23.20;47.30;;;;;;5004350;28;20032;-56
2020/12/01 10:55:56;;;;;;;;;;;23.30;47.00;;;;;;4999194;28;19944;-58
2020/12/01 10:58:23;;;;;;;;;;;23.30;47.70;;;;;;5010571;28;19921;-56
2020/12/01 11:00:49;;;;;;;;;;;23.40;46.90;;;;;;5006388;28;19984;-58
2020/12/01 11:03:15;;;;;;;;;;;23.50;46.80;;;;;;5007721;28;19929;-57
2020/12/01 11:05:41;;;;;;;;;;;23.50;47.10;;;;;;5009106;28;19957;-60
2020/12/01 11:08:08;;;;;;;;;;;23.60;46.80;;;;;;5014602;28;20401;-58
2020/12/01 11:10:34;;;;;;;;;;;23.70;46.50;;;;;;5007234;28;19929;-59
2020/12/01 11:13:00;;;;;;;;;;;23.80;46.60;;;;;;5002789;28;19936;-57
2020/12/01 11:15:26;;;;;;;;;;;23.30;44.50;;;;;;5006699;28;19922;-58
2020/12/01 11:17:52;;;;;;;;;;;22.20;46.80;;;;;;4993259;28;19921;-59
2020/12/01 11:20:18;;;;;;;;;;;21.50;48.40;;;;;;5006765;28;19925;-59
2020/12/01 11:22:51;;;;;;;;;;;21.20;49.10;;;;;;4999105;28;19925;-58
2020/12/01 11:25:21;;;;;;;;;;;21.00;49.70;;;;;;5007997;28;19921;-58
2020/12/01 11:27:47;;;;;;;;;;;20.80;50.00;;;;;;4998664;28;19991;-58
2020/12/01 11:30:14;;;;;;;;;;;20.60;50.30;;;;;;5006970;28;20397;-58
2020/12/01 11:32:40;;;;;;;;;;;20.60;50.50;;;;;;5000400;28;19971;-58
2020/12/01 11:35:09;;;;;;;;;;;20.50;50.60;;;;;;5007153;28;20366;-57
2020/12/01 11:37:35;;;;;;;;;;;20.40;50.90;;;;;;4999179;28;20693;-57
2020/12/01 11:40:03;;;;;;;;;;;20.30;51.50;;;;;;5007194;28;20365;-59
2020/12/01 11:42:29;;;;;;;;;;;20.20;51.00;;;;;;5007213;28;19929;-58
2020/12/01 11:44:55;;;;;;;;;;;20.10;51.20;;;;;;4999090;28;19953;-59
2020/12/01 11:47:21;;;;;;;;;;;20.10;51.40;;;;;;5013422;28;19922;-59
2020/12/01 11:49:47;;;;;;;;;;;20.20;52.50;;;;;;5013971;28;19975;-58
2020/12/01 11:52:13;;;;;;;;;;;20.40;51.80;;;;;;5013666;28;19929;-60
2020/12/01 11:54:40;;;;;;;;;;;20.50;51.90;;;;;;5013245;28;19921;-63
2020/12/01 11:57:06;;;;;;;;;;;20.50;51.40;;;;;;5013699;28;19928;-61
2020/12/01 11:59:32;;;;;;;;;;;20.50;51.70;;;;;;5012525;28;19928;-59
2020/12/01 12:01:58;;;;;;;;;;;20.60;51.80;;;;;;5011790;28;19928;-56
2020/12/01 12:07:46;;;;;;;;;;;20.60;51.60;;;;;;5005706;28;20355;-62
2020/12/01 12:10:12;;;;;;;;;;;20.60;51.50;;;;;;5007367;28;19922;-62
2020/12/01 12:12:38;;;;;;;;;;;20.60;51.60;;;;;;5012862;28;19921;-60
2020/12/01 12:15:05;;;;;;;;;;;20.60;51.50;;;;;;5013358;28;19921;-62
2020/12/01 12:17:31;;;;;;;;;;;20.60;51.50;;;;;;5012619;28;19922;-59
2020/12/01 12:19:57;;;;;;;;;;;20.60;51.80;;;;;;5023205;28;19921;-60
2020/12/01 12:22:23;;;;;;;;;;;20.70;51.80;;;;;;5001213;28;20366;-60
2020/12/01 12:24:55;;;;;;;;;;;20.60;51.60;;;;;;5012748;28;19929;-58
2020/12/01 12:27:39;;;;;;;6.82;3.05;;;20.60;51.00;;;;;;5010122;28;20392;-63
2020/12/01 12:30:06;;;;;;;5.83;2.67;;;20.50;50.40;;;;;;5010853;28;20264;-69
2020/12/01 12:32:32;;;;;;;6.97;2.33;;;20.40;52.20;;;;;;5014556;28;20902;-65
2020/12/01 12:34:59;;;;;;;6.23;2.27;;;20.90;51.50;;;;;;5017564;28;20211;-66
2020/12/01 12:37:25;;;;;;;4.87;2.07;;;21.50;50.60;;;;;;5021668;28;20764;-62
2020/12/01 12:39:51;;;;;;;6.40;2.07;;;22.00;49.70;;;;;;5018917;28;20235;-63
2020/12/01 12:42:17;;;;;;;5.50;2.10;;;22.30;49.00;;;;;;5007744;28;20880;-63
2020/12/01 12:44:44;;;;;;;5.43;2.40;;;22.60;48.90;;;;;;5017201;28;20691;-63
2020/12/01 12:47:10;;;;;;;6.17;2.23;;;22.80;48.20;;;;;;5002652;28;20223;-64
2020/12/01 12:49:36;;;;;;;5.03;1.93;;;23.00;48.00;;;;;;5010215;28;20235;-64
2020/12/01 12:52:02;;;;;;;5.13;1.80;;;23.10;47.80;;;;;;5008447;28;20269;-62
2020/12/01 12:54:29;;;;;;;4.13;2.03;;;23.20;47.50;;;;;;5018774;28;20864;-63
2020/12/01 12:56:55;;;;;;;5.17;2.07;;;23.30;47.50;;;;;;5013310;28;20237;-62
2020/12/01 12:59:21;;;;;;;4.47;1.57;;;23.40;47.50;;;;;;5022663;28;20291;-59
2020/12/01 13:01:47;;;;;;;4.53;1.90;;;23.60;47.20;;;;;;5013559;28;20235;-64
2020/12/01 13:04:13;;;;;;;5.30;2.37;;;23.60;47.00;;;;;;5016210;28;20752;-63
2020/12/01 13:06:40;;;;;;;4.53;1.73;;;23.70;46.90;;;;;;5006888;28;20246;-60
2020/12/01 13:09:06;;;;;;;3.87;2.00;;;23.80;46.80;;;;;;5016450;28;20218;-60
2020/12/01 13:11:33;;;;;;;6.97;2.67;;;23.90;46.70;;;;;;4998935;28;20711;-62
2020/12/01 13:13:59;;;;;;;4.83;2.10;;;24.00;46.30;;;;;;5016139;28;20242;-64
2020/12/01 13:16:26;;;;;;;3.13;1.80;;;23.90;46.20;;;;;;5015253;28;20263;-64
2020/12/01 13:18:52;;;;;;;5.37;2.13;;;24.10;46.00;;;;;;5013685;28;20234;-63
2020/12/01 13:21:18;;;;;;;4.63;2.33;;;24.10;45.80;;;;;;5005581;28;20232;-61
2020/12/01 13:23:44;;;;;;;4.67;2.20;;;24.30;45.70;;;;;;5008208;28;20237;-61
2020/12/01 13:26:11;;;;;;;6.23;2.13;;;24.40;45.80;;;;;;5029920;28;20241;-62
2020/12/01 13:28:37;;;;;;;5.00;2.33;;;24.40;45.50;;;;;;5033569;28;20222;-64
2020/12/01 13:31:03;;;;;;;5.20;2.17;;;24.40;45.40;;;;;;5041747;28;20622;-66
2020/12/01 13:33:29;;;;;;;4.30;1.80;;;24.60;45.80;;;;;;5021062;28;20609;-63
2020/12/01 13:35:57;;;;;;;5.73;2.17;;;24.60;45.20;;;;;;5022107;28;20744;-63
2020/12/01 13:38:23;;;;;;;4.80;2.20;;;24.20;45.40;;;;;;5002965;28;20227;-67
2020/12/01 13:40:49;;;;;;;7.70;2.90;;;23.80;45.90;;;;;;5008152;28;20368;-66
2020/12/01 13:43:15;;;;;;;6.40;2.67;;;23.60;46.40;;;;;;4998376;28;20289;-63
2020/12/01 13:45:42;;;;;;;6.03;2.57;;;23.30;47.30;;;;;;5005013;28;20234;-61
2020/12/01 13:48:08;;;;;;;5.37;2.20;;;23.20;47.50;;;;;;4997437;28;20236;-60
2020/12/01 13:50:34;;;;;;;7.47;2.50;;;23.10;47.70;;;;;;5005970;28;20640;-65
2020/12/01 13:53:00;;;;;;;4.67;1.97;;;23.00;47.80;;;;;;5000737;28;20231;-64
2020/12/01 13:55:32;;;;;;;6.93;2.50;;;23.00;48.40;;;;;;5006652;28;20921;-62
2020/12/01 13:57:58;;;;;;;5.43;2.10;;;22.90;48.00;;;;;;5007612;28;20231;-61
2020/12/01 14:00:28;;;;;;;7.73;2.53;;;22.80;47.90;;;;;;4999670;28;20223;-62
2020/12/01 14:02:54;;;;;;;3.93;2.10;;;22.70;47.80;;;;;;5003493;28;20246;-61